Terminal Aerodrome Forecast
Issued by NWS

Home | Current Version | Previous Version | Graphics & Text | Print | Product List | Glossary On
Versions: 1 2 3 4 5 6 7 8 9 10 11 12 13 14 15 16
000
FTUS43 KICT 251135
TAFCNU
TAF
KCNU 251135Z 2512/2612 03011KT P6SM -RA VCTS SCT015 BKN040CB
      TEMPO 2512/2515 VRB15G25KT 3SM +TSRA BKN015CB
     FM251600 08009KT P6SM SCT040 BKN100=

USA.gov is the U.S. government's official web portal to all federal, state and local government web resources and services.